createdAt,value
2019-05-17T00:00:07.668Z,9.40
2019-05-17T00:02:37.606Z,10.87
2019-05-17T00:05:07.570Z,12.10
2019-05-17T00:07:37.215Z,11.33
2019-05-17T00:10:07.070Z,11.00
2019-05-17T00:12:36.939Z,10.77
2019-05-17T00:15:07.633Z,12.43
2019-05-17T00:17:37.757Z,11.93
2019-05-17T00:20:07.450Z,12.23
2019-05-17T00:22:36.901Z,13.83
2019-05-17T00:25:08.461Z,13.27
2019-05-17T00:27:37.835Z,13.20
2019-05-17T00:30:08.259Z,13.50
2019-05-17T00:32:37.581Z,13.13
2019-05-17T00:35:07.714Z,13.53
2019-05-17T00:37:37.550Z,13.93
2019-05-17T00:40:07.556Z,13.77
2019-05-17T00:42:37.423Z,14.53
2019-05-17T00:45:07.660Z,13.97
2019-05-17T00:47:37.508Z,15.70
2019-05-17T00:50:07.977Z,15.83
2019-05-17T00:52:37.671Z,16.13
2019-05-17T00:55:07.093Z,16.67
2019-05-17T00:57:36.958Z,15.57
2019-05-17T01:00:08.605Z,15.73
2019-05-17T01:02:37.835Z,16.57
2019-05-17T01:05:07.294Z,15.77
2019-05-17T01:07:37.753Z,16.63
2019-05-17T01:10:08.007Z,16.50
2019-05-17T01:12:37.492Z,16.00
2019-05-17T01:15:07.658Z,16.90
2019-05-17T01:17:37.075Z,16.47
2019-05-17T01:20:07.151Z,15.67
2019-05-17T01:22:36.843Z,16.03
2019-05-17T01:25:07.112Z,16.47
2019-05-17T01:27:38.177Z,16.17
2019-05-17T01:30:08.402Z,15.50
2019-05-17T01:32:37.772Z,15.17
2019-05-17T01:35:07.625Z,15.90
2019-05-17T01:37:37.310Z,17.93
2019-05-17T01:40:07.047Z,16.17
2019-05-17T01:42:37.531Z,16.27
2019-05-17T01:45:07.753Z,16.33
2019-05-17T01:47:37.077Z,17.37
2019-05-17T01:50:07.662Z,15.67
2019-05-17T01:52:37.933Z,16.47
2019-05-17T01:55:07.629Z,16.87
2019-05-17T01:57:37.331Z,18.70
2019-05-17T02:00:07.861Z,17.23
2019-05-17T02:02:40.001Z,17.00
2019-05-17T02:05:09.917Z,16.10
2019-05-17T02:07:39.260Z,17.87
2019-05-17T02:10:09.009Z,17.87
2019-05-17T02:12:38.347Z,18.87
2019-05-17T02:15:09.586Z,17.70
2019-05-17T02:17:39.083Z,17.80
2019-05-17T02:20:09.203Z,17.40
2019-05-17T02:22:38.457Z,17.43
2019-05-17T02:25:27.240Z,18.37
2019-05-17T02:27:56.696Z,18.53
2019-05-17T02:30:25.972Z,18.17
2019-05-17T02:32:55.415Z,18.70
2019-05-17T02:35:24.773Z,20.13
2019-05-17T02:37:54.276Z,17.87
2019-05-17T02:40:23.671Z,18.50
2019-05-17T02:42:53.638Z,19.60
2019-05-17T02:45:23.608Z,19.20
2019-05-17T02:47:53.687Z,18.57
2019-05-17T02:50:23.497Z,19.57
2019-05-17T02:52:53.019Z,18.73
2019-05-17T02:55:23.350Z,18.10
2019-05-17T02:57:53.159Z,19.03
2019-05-17T03:00:23.896Z,18.97
2019-05-17T03:02:53.891Z,19.27
2019-05-17T03:05:23.466Z,19.00
2019-05-17T03:07:53.019Z,17.47
2019-05-17T03:10:28.301Z,18.33
2019-05-17T03:12:53.453Z,19.97
2019-05-17T03:15:23.527Z,20.93
2019-05-17T03:17:53.644Z,20.10
2019-05-17T03:20:23.457Z,20.00
2019-05-17T03:22:52.911Z,18.80
2019-05-17T03:25:23.935Z,18.47
2019-05-17T03:27:53.809Z,20.23
2019-05-17T03:30:26.006Z,18.23
2019-05-17T03:32:56.763Z,19.33
2019-05-17T03:35:27.154Z,20.67
2019-05-17T03:37:56.584Z,20.03
2019-05-17T03:41:00.558Z,19.80
2019-05-17T03:42:56.829Z,18.70
2019-05-17T03:45:26.113Z,19.93
2019-05-17T03:47:55.417Z,20.50
2019-05-17T03:50:24.738Z,18.63
2019-05-17T03:52:54.086Z,20.43
2019-05-17T03:55:23.634Z,19.63
2019-05-17T03:57:53.538Z,18.57
2019-05-17T04:00:23.501Z,18.40
2019-05-17T04:02:53.808Z,17.37
2019-05-17T04:05:23.409Z,17.97
2019-05-17T04:07:53.670Z,17.23
2019-05-17T04:10:23.252Z,19.03
2019-05-17T04:12:53.229Z,19.17
2019-05-17T04:15:24.110Z,18.77
2019-05-17T04:17:54.886Z,17.53
2019-05-17T04:20:33.218Z,19.37
2019-05-17T04:23:03.843Z,19.47
2019-05-17T04:25:34.051Z,17.93
2019-05-17T04:28:03.436Z,18.77
2019-05-17T04:30:33.144Z,19.23
2019-05-17T04:33:03.581Z,18.50
2019-05-17T04:35:33.234Z,19.37
2019-05-17T04:38:04.006Z,17.63
2019-05-17T04:40:34.203Z,19.37
2019-05-17T04:43:03.870Z,18.40
2019-05-17T04:45:33.838Z,19.13
2019-05-17T04:48:04.025Z,18.10
2019-05-17T04:50:33.967Z,19.43
2019-05-17T04:53:03.337Z,18.40
2019-05-17T04:55:34.144Z,18.53
2019-05-17T04:58:04.339Z,20.13
2019-05-17T05:00:34.461Z,19.03
2019-05-17T05:03:04.445Z,18.80
2019-05-17T05:05:33.943Z,19.53
2019-05-17T05:08:03.584Z,17.60
2019-05-17T05:10:36.085Z,18.03
2019-05-17T05:13:03.990Z,16.60
2019-05-17T05:15:43.951Z,16.30
2019-05-17T05:18:13.227Z,17.03
2019-05-17T05:20:43.783Z,17.90
2019-05-17T05:23:13.599Z,18.13
2019-05-17T05:25:43.413Z,16.40
2019-05-17T05:28:12.819Z,16.93
2019-05-17T05:30:42.502Z,18.80
2019-05-17T05:33:12.952Z,16.80
2019-05-17T05:35:42.900Z,15.77
2019-05-17T05:38:13.246Z,17.03
2019-05-17T05:40:43.318Z,17.03
2019-05-17T05:43:12.673Z,16.93
2019-05-17T05:45:42.080Z,16.57
2019-05-17T05:48:12.959Z,15.63
2019-05-17T05:50:43.461Z,14.53
2019-05-17T05:53:13.321Z,15.53
2019-05-17T05:55:43.315Z,14.63
2019-05-17T05:58:13.049Z,15.50
2019-05-17T06:00:43.025Z,14.37
2019-05-17T06:03:12.523Z,14.43
2019-05-17T06:05:42.489Z,16.37
2019-05-17T06:08:12.439Z,13.37
2019-05-17T06:10:42.883Z,14.03
2019-05-17T06:13:13.041Z,15.53
2019-05-17T06:15:43.292Z,15.67
2019-05-17T06:18:12.762Z,15.00
2019-05-17T06:20:42.176Z,14.93
2019-05-17T06:23:12.220Z,14.17
2019-05-17T06:25:43.581Z,13.83
2019-05-17T06:28:12.950Z,14.07
2019-05-17T06:30:43.203Z,13.70
2019-05-17T06:33:26.663Z,14.10
2019-05-17T06:35:43.587Z,13.13
2019-05-17T06:38:12.897Z,15.33
2019-05-17T06:40:42.317Z,12.13
2019-05-17T06:43:13.012Z,12.20
2019-05-17T06:45:42.546Z,10.73
2019-05-17T06:48:12.072Z,11.17
2019-05-17T06:50:42.955Z,11.13
2019-05-17T06:53:12.666Z,10.23
2019-05-17T06:55:42.774Z,10.57
2019-05-17T06:58:12.316Z,12.17
2019-05-17T07:00:41.698Z,10.73
2019-05-17T07:03:10.953Z,11.43
2019-05-17T07:05:41.853Z,11.10
2019-05-17T07:08:11.139Z,12.37
2019-05-17T07:10:40.395Z,12.33
2019-05-17T07:13:10.568Z,12.73
2019-05-17T07:15:47.241Z,12.30
2019-05-17T07:18:11.294Z,11.07
2019-05-17T07:20:40.633Z,9.97
2019-05-17T07:23:10.699Z,9.50
2019-05-17T07:25:40.380Z,9.07
2019-05-17T07:28:10.229Z,9.83
2019-05-17T07:30:40.237Z,9.53
2019-05-17T07:33:10.317Z,9.53
2019-05-17T07:35:39.980Z,9.03
2019-05-17T07:38:10.658Z,8.33
2019-05-17T07:40:40.236Z,8.77
2019-05-17T07:43:13.763Z,10.13
2019-05-17T07:45:40.730Z,8.43
2019-05-17T07:48:10.143Z,10.03
2019-05-17T07:50:39.971Z,10.50
2019-05-17T07:53:10.275Z,9.20
2019-05-17T07:55:40.186Z,10.13
2019-05-17T07:58:09.909Z,8.47
2019-05-17T08:00:40.228Z,6.90
2019-05-17T08:03:13.032Z,7.70
2019-05-17T08:05:40.660Z,7.40
2019-05-17T08:08:10.103Z,7.83
2019-05-17T08:10:41.022Z,7.80
2019-05-17T08:13:25.254Z,8.20
2019-05-17T08:15:41.358Z,8.97
2019-05-17T08:18:11.106Z,7.70
2019-05-17T08:20:40.603Z,7.47
2019-05-17T08:23:10.751Z,10.00
2019-05-17T08:25:52.445Z,9.63
2019-05-17T08:28:11.300Z,9.00
2019-05-17T08:30:41.092Z,8.17
2019-05-17T08:33:11.160Z,8.87
2019-05-17T08:35:40.618Z,8.80
2019-05-17T08:38:10.582Z,9.20
2019-05-17T08:40:40.633Z,9.47
2019-05-17T08:43:10.273Z,9.10
2019-05-17T08:45:40.627Z,9.10
2019-05-17T08:48:10.292Z,8.93
2019-05-17T08:50:40.270Z,8.50
2019-05-17T08:53:10.603Z,7.97
2019-05-17T08:55:41.130Z,8.30
2019-05-17T08:58:10.699Z,7.37
2019-05-17T09:00:40.871Z,8.33
2019-05-17T09:03:10.861Z,8.83
2019-05-17T09:05:41.856Z,9.47
2019-05-17T09:08:11.249Z,8.17
2019-05-17T09:10:40.996Z,8.83
2019-05-17T09:13:13.925Z,9.17
2019-05-17T09:15:41.326Z,9.80
2019-05-17T09:18:10.540Z,8.70
2019-05-17T09:20:40.653Z,8.70
2019-05-17T09:23:10.214Z,9.60
2019-05-17T09:25:39.959Z,9.43
2019-05-17T09:28:10.225Z,9.17
2019-05-17T09:30:40.431Z,9.07
2019-05-17T09:33:11.357Z,9.00
2019-05-17T09:35:41.304Z,8.63
2019-05-17T09:38:10.683Z,8.77
2019-05-17T09:40:40.366Z,8.53
2019-05-17T09:43:10.395Z,9.10
2019-05-17T09:45:40.511Z,8.70
2019-05-17T09:48:10.668Z,8.13
2019-05-17T09:50:40.244Z,9.00
2019-05-17T09:53:10.881Z,8.50
2019-05-17T09:55:40.330Z,9.03
2019-05-17T09:58:10.115Z,8.27
2019-05-17T10:00:39.541Z,9.07
2019-05-17T10:03:09.802Z,7.50
2019-05-17T10:05:40.549Z,8.40
2019-05-17T10:08:10.861Z,7.67
2019-05-17T10:10:40.593Z,8.67
2019-05-17T10:13:10.052Z,8.23
2019-05-17T10:15:40.879Z,8.07
2019-05-17T10:18:11.437Z,7.90
2019-05-17T10:20:40.807Z,7.80
2019-05-17T10:23:10.715Z,8.53
2019-05-17T10:25:40.329Z,8.57
2019-05-17T10:28:10.241Z,8.53
2019-05-17T10:30:40.131Z,8.07
2019-05-17T10:33:10.017Z,8.43
2019-05-17T10:35:40.646Z,8.27
2019-05-17T10:38:10.613Z,8.10
2019-05-17T10:40:40.892Z,8.73
2019-05-17T10:46:14.738Z,8.70
2019-05-17T10:48:43.956Z,8.50
2019-05-17T10:51:13.563Z,8.70
2019-05-17T10:53:42.964Z,8.27
2019-05-17T10:56:12.351Z,7.57
2019-05-17T10:58:41.583Z,8.30
2019-05-17T11:01:10.844Z,8.30
2019-05-17T11:03:40.186Z,7.80
2019-05-17T11:06:10.931Z,7.70
2019-05-17T11:08:40.481Z,8.03
2019-05-17T11:11:10.165Z,7.57
2019-05-17T11:13:39.654Z,7.07
2019-05-17T11:16:09.034Z,6.50
2019-05-17T11:18:38.358Z,7.97
2019-05-17T11:21:07.553Z,7.23
2019-05-17T11:23:36.872Z,6.47
2019-05-17T11:26:07.022Z,6.53
2019-05-17T11:28:36.294Z,5.50
2019-05-17T11:31:05.586Z,5.73
2019-05-17T11:33:34.803Z,5.30
2019-05-17T11:36:03.984Z,5.73
2019-05-17T11:38:33.361Z,5.80
2019-05-17T11:41:19.891Z,6.50
2019-05-17T11:43:33.623Z,6.77
2019-05-17T11:46:02.990Z,6.40
2019-05-17T11:48:32.225Z,6.00
2019-05-17T11:51:01.595Z,5.57
2019-05-17T11:53:30.870Z,6.07
2019-05-17T11:56:00.249Z,6.13
2019-05-17T11:58:29.686Z,6.03
2019-05-17T12:00:58.984Z,5.57
2019-05-17T12:03:28.295Z,6.50
2019-05-17T12:05:57.637Z,6.90
2019-05-17T12:08:26.979Z,6.37
2019-05-17T12:11:15.255Z,6.27
2019-05-17T12:13:44.661Z,6.43
2019-05-17T12:16:13.905Z,6.07
2019-05-17T12:18:43.192Z,6.47
2019-05-17T12:21:12.504Z,6.67
2019-05-17T12:23:41.711Z,6.10
2019-05-17T12:26:11.032Z,7.20
2019-05-17T12:28:40.315Z,6.73
2019-05-17T12:31:09.579Z,7.17
2019-05-17T12:33:38.802Z,8.20
2019-05-17T12:36:08.004Z,7.67
2019-05-17T12:38:37.295Z,6.70
2019-05-17T12:41:06.686Z,7.60
2019-05-17T12:43:35.901Z,6.90
2019-05-17T12:46:06.162Z,7.37
2019-05-17T12:48:35.380Z,7.93
2019-05-17T12:51:04.645Z,7.03
2019-05-17T12:53:33.960Z,7.17
2019-05-17T12:56:03.303Z,7.87
2019-05-17T12:58:32.647Z,7.83
2019-05-17T13:01:02.015Z,8.20
2019-05-17T13:03:31.326Z,7.83
2019-05-17T13:06:00.677Z,7.00
2019-05-17T13:08:30.084Z,8.00
2019-05-17T13:10:59.430Z,7.50
2019-05-17T13:13:28.822Z,8.67
2019-05-17T13:15:58.158Z,8.70
2019-05-17T13:18:27.459Z,9.30
2019-05-17T13:20:56.679Z,9.80
2019-05-17T13:23:25.890Z,9.13
2019-05-17T13:25:55.105Z,9.70
2019-05-17T13:28:27.368Z,9.20
2019-05-17T13:30:56.679Z,9.67
2019-05-17T13:33:28.974Z,9.60
2019-05-17T13:35:56.906Z,9.47
2019-05-17T13:38:26.162Z,8.83
2019-05-17T13:40:55.473Z,8.30
2019-05-17T13:43:25.195Z,7.77
2019-05-17T13:45:54.489Z,9.07
2019-05-17T13:48:23.832Z,8.57
2019-05-17T13:50:53.149Z,8.00
2019-05-17T13:53:22.511Z,8.20
2019-05-17T13:55:51.896Z,9.07
2019-05-17T13:58:21.135Z,8.87
2019-05-17T14:00:50.649Z,9.07
2019-05-17T14:03:19.952Z,9.07
2019-05-17T14:05:49.458Z,9.43
2019-05-17T14:08:18.885Z,9.67
2019-05-17T14:10:48.177Z,8.57
2019-05-17T14:13:17.534Z,9.50
2019-05-17T14:15:46.941Z,9.20
2019-05-17T14:18:16.279Z,9.40
2019-05-17T14:20:45.573Z,9.20
2019-05-17T14:23:14.936Z,9.27
2019-05-17T14:25:44.281Z,10.30
2019-05-17T14:28:13.502Z,9.57
2019-05-17T14:30:42.852Z,10.10
2019-05-17T14:33:12.186Z,9.30
2019-05-17T14:35:41.400Z,11.03
2019-05-17T14:38:10.784Z,10.80
2019-05-17T14:41:05.078Z,9.60
2019-05-17T14:43:10.990Z,10.60
2019-05-17T14:45:41.831Z,10.77
2019-05-17T14:48:11.270Z,11.13
2019-05-17T14:50:40.676Z,10.43
2019-05-17T14:53:09.987Z,9.83
2019-05-17T14:55:39.411Z,10.27
2019-05-17T14:58:08.791Z,9.27
2019-05-17T15:00:38.228Z,11.10
2019-05-17T15:03:07.842Z,10.60
2019-05-17T15:05:37.263Z,9.57
2019-05-17T15:08:06.551Z,9.33
2019-05-17T15:10:35.922Z,9.80
2019-05-17T15:13:05.278Z,10.00
2019-05-17T15:15:34.695Z,9.07
2019-05-17T15:18:04.082Z,9.07
2019-05-17T15:20:33.451Z,9.33
2019-05-17T15:23:02.808Z,10.03
2019-05-17T15:25:32.207Z,10.57
2019-05-17T15:28:01.423Z,10.13
2019-05-17T15:30:30.756Z,11.00
2019-05-17T15:33:00.061Z,10.63
2019-05-17T15:35:29.401Z,11.17
2019-05-17T15:37:58.738Z,11.13
2019-05-17T15:40:28.072Z,11.13
2019-05-17T15:42:57.401Z,10.00
2019-05-17T15:45:26.862Z,10.47
2019-05-17T15:47:56.299Z,10.20
2019-05-17T15:50:25.561Z,10.47
2019-05-17T15:52:54.926Z,11.30
2019-05-17T15:55:24.209Z,10.60
2019-05-17T15:57:53.599Z,11.73
2019-05-17T16:00:23.080Z,11.03
2019-05-17T16:02:52.391Z,11.97
2019-05-17T16:05:21.955Z,12.00
2019-05-17T16:07:51.397Z,12.10
2019-05-17T16:10:20.856Z,13.57
2019-05-17T16:13:01.674Z,14.57
2019-05-17T16:15:21.217Z,12.43
2019-05-17T16:17:50.628Z,11.37
2019-05-17T16:20:20.062Z,12.70
2019-05-17T16:22:49.448Z,12.83
2019-05-17T16:25:19.542Z,11.17
2019-05-17T16:27:54.995Z,11.30
2019-05-17T16:30:24.457Z,11.90
2019-05-17T16:32:53.907Z,12.07
2019-05-17T16:35:23.298Z,11.77
2019-05-17T16:37:52.892Z,11.67
2019-05-17T16:40:22.135Z,10.90
2019-05-17T16:42:51.752Z,11.80
2019-05-17T16:45:21.040Z,11.83
2019-05-17T16:47:50.463Z,11.00
2019-05-17T16:50:19.866Z,11.77
2019-05-17T16:52:49.377Z,11.47
2019-05-17T16:55:19.491Z,11.70
2019-05-17T16:57:48.890Z,11.07
2019-05-17T17:00:32.832Z,13.33
2019-05-17T17:03:02.334Z,10.47
2019-05-17T17:05:31.838Z,11.27
2019-05-17T17:08:02.371Z,12.70
2019-05-17T17:10:31.721Z,11.77
2019-05-17T17:13:01.036Z,11.40
2019-05-17T17:15:30.807Z,11.70
2019-05-17T17:18:00.467Z,11.53
2019-05-17T17:20:29.674Z,11.73
2019-05-17T17:22:59.115Z,12.33
2019-05-17T17:25:28.497Z,11.67
2019-05-17T17:27:57.851Z,12.17
2019-05-17T17:30:27.192Z,12.70
2019-05-17T17:32:56.749Z,11.30
2019-05-17T17:35:26.065Z,10.90
2019-05-17T17:37:55.473Z,11.00
2019-05-17T17:40:24.992Z,11.20
2019-05-17T17:42:54.507Z,10.67
2019-05-17T17:45:24.855Z,11.97
2019-05-17T17:47:54.161Z,11.27
2019-05-17T17:50:23.607Z,10.53
2019-05-17T17:52:53.367Z,9.77
2019-05-17T17:55:22.930Z,9.93
2019-05-17T17:57:52.282Z,9.80
2019-05-17T18:00:21.844Z,10.03
2019-05-17T18:02:51.181Z,10.73
2019-05-17T18:05:20.613Z,11.80
2019-05-17T18:07:49.966Z,10.30
2019-05-17T18:10:28.873Z,10.17
2019-05-17T18:12:58.305Z,10.50
2019-05-17T18:15:44.182Z,9.93
2019-05-17T18:18:13.922Z,10.30
2019-05-17T18:20:43.594Z,10.80
2019-05-17T18:23:12.909Z,10.07
2019-05-17T18:25:42.202Z,11.33
2019-05-17T18:28:11.685Z,12.67
2019-05-17T18:30:41.010Z,12.20
2019-05-17T18:33:16.189Z,11.40
2019-05-17T18:35:45.544Z,13.07
2019-05-17T18:38:17.160Z,12.20
2019-05-17T18:40:48.662Z,14.30
2019-05-17T18:43:17.970Z,13.27
2019-05-17T18:45:47.207Z,12.43
2019-05-17T18:48:16.655Z,12.30
2019-05-17T18:50:45.938Z,13.40
2019-05-17T18:53:31.335Z,12.80
2019-05-17T18:56:00.597Z,13.17
2019-05-17T18:58:29.877Z,12.67
2019-05-17T19:00:59.219Z,13.13
2019-05-17T19:03:28.555Z,12.63
2019-05-17T19:05:57.811Z,12.47
2019-05-17T19:08:27.027Z,13.63
2019-05-17T19:10:56.480Z,13.40
2019-05-17T19:13:25.789Z,13.90
2019-05-17T19:15:55.194Z,15.17
2019-05-17T19:18:24.587Z,13.13
2019-05-17T19:20:53.789Z,13.97
2019-05-17T19:23:25.803Z,13.83
2019-05-17T19:25:54.071Z,14.13
2019-05-17T19:28:23.300Z,13.50
2019-05-17T19:30:52.669Z,12.93
2019-05-17T19:33:21.949Z,14.93
2019-05-17T19:35:51.301Z,14.40
2019-05-17T19:38:20.685Z,14.23
2019-05-17T19:40:49.967Z,14.30
2019-05-17T19:43:19.266Z,16.03
2019-05-17T19:45:48.675Z,14.00
2019-05-17T19:48:19.918Z,14.07
2019-05-17T19:50:50.497Z,14.43
2019-05-17T19:53:19.799Z,15.40
2019-05-17T19:55:49.958Z,14.87
2019-05-17T19:58:20.648Z,15.00
2019-05-17T20:00:50.061Z,14.27
2019-05-17T20:03:19.403Z,15.13
2019-05-17T20:05:48.739Z,14.73
2019-05-17T20:08:18.013Z,15.27
2019-05-17T20:10:47.364Z,14.90
2019-05-17T20:13:17.006Z,15.13
2019-05-17T20:15:46.404Z,15.97
2019-05-17T20:18:15.648Z,15.87
2019-05-17T20:20:44.999Z,16.33
2019-05-17T20:23:14.346Z,14.83
2019-05-17T20:25:43.770Z,14.80
2019-05-17T20:28:13.186Z,15.30
2019-05-17T20:30:42.558Z,15.13
2019-05-17T20:33:11.873Z,15.37
2019-05-17T20:35:41.193Z,15.93
2019-05-17T20:38:10.474Z,16.40
2019-05-17T20:40:39.722Z,15.63
2019-05-17T20:43:09.091Z,16.20
2019-05-17T20:45:38.422Z,16.13
2019-05-17T20:48:09.892Z,15.97
2019-05-17T20:50:39.283Z,15.70
2019-05-17T20:53:18.501Z,15.67
2019-05-17T20:55:39.577Z,15.80
2019-05-17T20:58:08.866Z,16.17
2019-05-17T21:00:38.150Z,17.07
2019-05-17T21:03:07.442Z,17.33
2019-05-17T21:05:36.803Z,16.60
2019-05-17T21:08:06.269Z,18.20
2019-05-17T21:10:35.505Z,18.90
2019-05-17T21:13:04.923Z,19.07
2019-05-17T21:15:46.935Z,18.43
2019-05-17T21:18:05.163Z,18.43
2019-05-17T21:20:34.585Z,20.07
2019-05-17T21:23:03.923Z,19.50
2019-05-17T21:25:33.227Z,19.27
2019-05-17T21:28:02.643Z,20.13
2019-05-17T21:30:31.882Z,19.93
2019-05-17T21:33:01.245Z,20.20
2019-05-17T21:35:30.565Z,19.20
2019-05-17T21:37:59.891Z,20.37
2019-05-17T21:40:29.158Z,21.27
2019-05-17T21:42:58.459Z,19.73
2019-05-17T21:45:27.767Z,19.70
2019-05-17T21:48:16.181Z,21.23
2019-05-17T21:50:47.077Z,20.80
2019-05-17T21:53:16.403Z,18.40
2019-05-17T21:55:45.741Z,19.73
2019-05-17T21:58:15.017Z,21.10
2019-05-17T22:01:24.562Z,21.27
2019-05-17T22:03:53.925Z,20.07
2019-05-17T22:06:23.576Z,19.30
2019-05-17T22:08:52.896Z,20.57
2019-05-17T22:11:22.202Z,20.70
2019-05-17T22:13:51.626Z,19.83
2019-05-17T22:16:21.002Z,20.20
2019-05-17T22:18:50.193Z,22.07
2019-05-17T22:21:19.522Z,21.77
2019-05-17T22:23:48.871Z,22.30
2019-05-17T22:26:37.296Z,21.33
2019-05-17T22:29:06.600Z,21.63
2019-05-17T22:31:38.868Z,21.03
2019-05-17T22:34:06.936Z,22.20
2019-05-17T22:36:36.336Z,20.50
2019-05-17T22:39:07.102Z,22.07
2019-05-17T22:41:36.458Z,21.87
2019-05-17T22:44:05.825Z,21.07
2019-05-17T22:46:36.517Z,20.90
2019-05-17T22:49:06.056Z,19.57
2019-05-17T22:51:35.344Z,20.27
2019-05-17T22:54:04.827Z,21.17
2019-05-17T22:56:34.178Z,20.67
2019-05-17T22:59:03.406Z,21.30
2019-05-17T23:01:32.681Z,20.77
2019-05-17T23:04:02.016Z,21.07
2019-05-17T23:06:31.277Z,22.10
2019-05-17T23:09:00.591Z,20.50
2019-05-17T23:11:29.898Z,21.77
2019-05-17T23:13:59.162Z,21.97
2019-05-17T23:16:28.391Z,21.43
2019-05-17T23:19:10.757Z,21.77
2019-05-17T23:21:40.197Z,21.97
2019-05-17T23:24:09.469Z,21.13
2019-05-17T23:26:38.711Z,21.20
2019-05-17T23:29:08.093Z,20.43
2019-05-17T23:31:37.447Z,20.23
2019-05-17T23:34:06.759Z,20.27
2019-05-17T23:36:36.035Z,19.77
2019-05-17T23:39:06.888Z,19.60
2019-05-17T23:41:36.263Z,19.87
2019-05-17T23:44:05.805Z,20.20
2019-05-17T23:46:35.055Z,21.10
2019-05-17T23:49:04.503Z,19.93
2019-05-17T23:51:33.755Z,19.80
2019-05-17T23:54:03.103Z,19.67
2019-05-17T23:56:32.385Z,20.07
2019-05-17T23:59:01.672Z,19.17
